Time;durP1;ratioP1;P1;durP2;ratioP2;P2;SDS_P1;SDS_P2;PMS_P1;PMS_P2;Temp;Humidity;BMP_temperature;BMP_pressure;BME280_temperature;BME280_humidity;BME280_pressure;Samples;Min_cycle;Max_cycle;Signal;HPM_P1;HPM_P2
2022/10/08 00:01:17;;;;;;;11.10;1.80;;;15.30;90.60;;;;;;5042346;28;20354;-70
2022/10/08 00:03:46;;;;;;;9.75;1.77;;;15.30;90.70;;;;;;5039895;28;20021;-70
2022/10/08 00:06:18;;;;;;;12.40;1.70;;;15.30;90.80;;;;;;5040737;28;20033;-70
2022/10/08 00:08:51;;;;;;;11.43;1.70;;;15.30;91.10;;;;;;5045329;28;20037;-70
2022/10/08 00:11:34;;;;;;;10.57;1.70;;;15.20;90.90;;;;;;5039386;28;20029;-70
2022/10/08 00:14:00;;;;;;;8.75;1.50;;;15.30;91.10;;;;;;5044383;28;20075;-69
2022/10/08 00:16:38;;;;;;;9.98;1.83;;;15.30;91.20;;;;;;5057243;28;20388;-70
2022/10/08 00:19:07;;;;;;;9.65;1.70;;;15.20;91.30;;;;;;5043033;28;20520;-70
2022/10/08 00:21:36;;;;;;;10.90;1.75;;;15.20;91.30;;;;;;5039269;28;20614;-70
2022/10/08 00:24:03;;;;;;;14.85;2.03;;;15.20;91.40;;;;;;5042782;28;20048;-70
2022/10/08 00:26:33;;;;;;;14.77;2.22;;;15.10;91.40;;;;;;5039331;28;20112;-70
2022/10/08 00:29:02;;;;;;;9.30;1.73;;;15.10;91.70;;;;;;5041893;28;20033;-70
2022/10/08 00:31:31;;;;;;;12.35;1.90;;;15.10;91.70;;;;;;5040106;28;20083;-70
2022/10/08 00:33:58;;;;;;;9.75;1.60;;;15.10;92.10;;;;;;5041923;28;20099;-70
2022/10/08 00:36:26;;;;;;;8.07;1.50;;;15.00;91.90;;;;;;5040499;28;20045;-70
2022/10/08 00:39:22;;;;;;;8.45;1.50;;;15.00;92.00;;;;;;5039675;28;20049;-70
2022/10/08 00:41:54;;;;;;;15.52;2.08;;;15.10;92.10;;;;;;5038220;28;20500;-70
2022/10/08 00:44:55;;;;;;;13.80;1.80;;;15.10;92.30;;;;;;5043176;28;20029;-70
2022/10/08 00:47:38;;;;;;;16.88;1.73;;;15.10;92.20;;;;;;5039280;28;20033;-70
2022/10/08 00:50:30;;;;;;;11.52;2.05;;;15.00;92.50;;;;;;5037936;28;20036;-71
2022/10/08 00:53:00;;;;;;;15.10;1.97;;;15.10;92.80;;;;;;5039092;28;20504;-70
2022/10/08 00:55:27;;;;;;;14.35;2.00;;;15.00;92.90;;;;;;5039811;28;20056;-68
2022/10/08 00:58:00;;;;;;;11.13;2.08;;;15.00;93.20;;;;;;5041035;28;20108;-70
2022/10/08 01:00:26;;;;;;;15.63;1.88;;;14.90;93.40;;;;;;5040538;28;20085;-70
2022/10/08 01:02:52;;;;;;;8.60;1.67;;;15.00;93.90;;;;;;5039564;28;20113;-70
2022/10/08 01:05:26;;;;;;;13.05;2.17;;;14.90;93.80;;;;;;5040938;28;20052;-70
2022/10/08 01:08:04;;;;;;;16.55;2.25;;;14.90;94.10;;;;;;5039427;28;20076;-70
2022/10/08 01:10:42;;;;;;;13.57;1.98;;;15.00;94.10;;;;;;5049524;28;20032;-67
2022/10/08 01:13:16;;;;;;;11.50;2.50;;;15.00;94.50;;;;;;5048671;28;20025;-68
2022/10/08 01:16:06;;;;;;;12.00;1.83;;;14.90;94.60;;;;;;5039595;28;20397;-68
2022/10/08 01:19:11;;;;;;;10.57;2.10;;;14.90;94.80;;;;;;5041471;28;20033;-69
2022/10/08 01:22:03;;;;;;;10.98;2.33;;;14.90;94.90;;;;;;5039228;28;20037;-69
2022/10/08 01:25:31;;;;;;;9.82;2.05;;;14.90;95.10;;;;;;5037172;28;20029;-69
2022/10/08 01:27:27;;;;;;;10.65;2.03;;;14.90;95.40;;;;;;5039574;28;20154;-69
2022/10/08 01:30:00;;;;;;;13.95;2.67;;;14.90;95.40;;;;;;5035879;28;20032;-69
2022/10/08 01:32:33;;;;;;;11.88;2.05;;;15.00;95.60;;;;;;5038794;28;20030;-69
2022/10/08 01:35:04;;;;;;;11.48;2.25;;;15.00;96.00;;;;;;5041603;28;20079;-69
2022/10/08 01:37:36;;;;;;;9.55;1.90;;;14.90;96.10;;;;;;5038552;28;20030;-69
2022/10/08 01:40:09;;;;;;;10.05;2.10;;;14.90;96.40;;;;;;5040734;28;20033;-69
2022/10/08 01:42:38;;;;;;;11.55;2.35;;;14.80;96.60;;;;;;5044215;28;20458;-69
2022/10/08 01:45:11;;;;;;;12.07;2.10;;;14.70;96.70;;;;;;5041563;28;20037;-69
2022/10/08 01:47:40;;;;;;;10.80;2.10;;;14.70;96.90;;;;;;5042435;28;20409;-69
2022/10/08 01:50:27;;;;;;;10.35;2.70;;;14.70;97.00;;;;;;5044524;28;20532;-69
2022/10/08 01:52:57;;;;;;;9.60;2.22;;;14.70;97.20;;;;;;5041857;28;20040;-69
2022/10/08 01:55:37;;;;;;;9.05;1.80;;;14.70;97.10;;;;;;5042799;28;20059;-69
2022/10/08 01:58:11;;;;;;;10.15;2.03;;;14.70;97.10;;;;;;5044754;28;20041;-69
2022/10/08 02:00:39;;;;;;;7.03;1.40;;;14.70;97.30;;;;;;5041613;28;20034;-69
2022/10/08 02:03:05;;;;;;;9.80;1.60;;;14.70;97.40;;;;;;5043634;28;20049;-69
2022/10/08 02:05:35;;;;;;;7.85;1.30;;;14.70;97.80;;;;;;5043883;28;20060;-69
2022/10/08 02:08:01;;;;;;;8.13;1.85;;;14.60;97.70;;;;;;5060507;28;20027;-68
2022/10/08 02:10:27;;;;;;;8.05;1.63;;;14.70;97.90;;;;;;5043710;28;20107;-69
2022/10/08 02:12:53;;;;;;;4.63;1.50;;;14.70;98.00;;;;;;5044247;28;20045;-69
2022/10/08 02:15:31;;;;;;;7.65;1.95;;;14.60;98.00;;;;;;5044153;28;20025;-69
2022/10/08 02:18:19;;;;;;;9.60;2.15;;;14.70;98.20;;;;;;5040740;28;20026;-69
2022/10/08 02:20:57;;;;;;;8.55;3.35;;;14.70;98.20;;;;;;5045845;28;20026;-69
2022/10/08 02:23:35;;;;;;;10.48;3.05;;;14.60;98.40;;;;;;5039812;28;20025;-69
2022/10/08 02:26:05;;;;;;;8.65;3.15;;;14.60;98.40;;;;;;5042697;28;20037;-69
2022/10/08 02:28:34;;;;;;;11.10;4.25;;;14.70;98.40;;;;;;5042890;28;20114;-69
2022/10/08 02:31:09;;;;;;;12.00;4.78;;;14.70;98.40;;;;;;5041297;28;20437;-69
2022/10/08 02:34:11;;;;;;;15.18;4.35;;;14.70;98.50;;;;;;5044287;28;20033;-69
2022/10/08 02:36:43;;;;;;;11.02;4.72;;;14.70;98.60;;;;;;5039626;28;20496;-69
2022/10/08 02:39:11;;;;;;;14.63;4.80;;;14.70;98.80;;;;;;5045580;28;20029;-69
2022/10/08 02:41:42;;;;;;;10.05;4.82;;;14.70;98.80;;;;;;5039889;28;20064;-69
2022/10/08 02:44:14;;;;;;;13.38;4.82;;;14.70;98.80;;;;;;5044167;28;20029;-69
2022/10/08 02:46:43;;;;;;;10.82;5.10;;;14.70;99.20;;;;;;5043522;28;20030;-69
2022/10/08 02:49:14;;;;;;;10.43;5.03;;;14.70;99.10;;;;;;5043098;28;20021;-69
2022/10/08 02:51:44;;;;;;;11.07;4.47;;;14.70;99.10;;;;;;5043367;28;20068;-69
2022/10/08 02:54:10;;;;;;;10.93;4.88;;;14.70;99.10;;;;;;5042996;28;20032;-69
2022/10/08 02:56:53;;;;;;;11.18;4.38;;;14.70;99.20;;;;;;5041537;28;20044;-69
2022/10/08 02:59:20;;;;;;;10.45;4.35;;;14.70;99.20;;;;;;5040319;28;20429;-69
2022/10/08 03:01:56;;;;;;;15.00;5.68;;;14.70;99.20;;;;;;5044426;28;20497;-68
2022/10/08 03:04:29;;;;;;;14.00;4.82;;;14.70;99.10;;;;;;5064377;28;20022;-67
2022/10/08 03:06:57;;;;;;;13.48;5.25;;;14.70;99.10;;;;;;5042574;28;20029;-69
2022/10/08 03:09:26;;;;;;;9.32;4.28;;;14.70;99.20;;;;;;5043502;28;20492;-69
2022/10/08 03:11:53;;;;;;;9.10;4.90;;;14.80;99.20;;;;;;5040437;28;20465;-69
2022/10/08 03:14:20;;;;;;;12.02;4.72;;;14.80;99.20;;;;;;5042289;28;20574;-69
2022/10/08 03:16:49;;;;;;;10.98;4.45;;;14.80;99.20;;;;;;5041725;28;20476;-69
2022/10/08 03:19:16;;;;;;;11.57;4.50;;;14.70;99.20;;;;;;5040217;28;20104;-69
2022/10/08 03:21:45;;;;;;;10.50;4.15;;;14.70;99.30;;;;;;5045259;28;20388;-69
2022/10/08 03:24:13;;;;;;;10.80;4.20;;;14.60;99.40;;;;;;5039056;28;20052;-69
2022/10/08 03:26:39;;;;;;;13.15;4.63;;;14.50;99.50;;;;;;5041831;28;20078;-69
2022/10/08 03:29:05;;;;;;;15.98;4.85;;;14.50;99.50;;;;;;5043365;28;20112;-70
2022/10/08 03:31:31;;;;;;;12.23;4.35;;;14.50;99.50;;;;;;5041276;28;20493;-70
2022/10/08 03:33:57;;;;;;;9.38;3.72;;;14.50;99.50;;;;;;5041701;28;20036;-70
2022/10/08 03:36:24;;;;;;;12.32;4.07;;;14.50;99.60;;;;;;5042176;28;20507;-70
2022/10/08 03:38:50;;;;;;;11.70;4.72;;;14.50;99.70;;;;;;5043066;28;20110;-70
2022/10/08 03:41:17;;;;;;;15.00;4.05;;;14.50;99.80;;;;;;5040747;28;20052;-70
2022/10/08 03:43:46;;;;;;;11.02;3.58;;;14.50;99.70;;;;;;5040488;28;20107;-69
2022/10/08 03:46:13;;;;;;;8.60;3.55;;;14.50;99.80;;;;;;5041936;28;20021;-70
2022/10/08 03:48:43;;;;;;;13.60;3.60;;;14.50;99.80;;;;;;5041106;28;20056;-71
2022/10/08 03:51:13;;;;;;;10.50;3.97;;;14.50;99.80;;;;;;5038866;28;20378;-71
2022/10/08 03:53:40;;;;;;;10.88;3.85;;;14.40;99.70;;;;;;5037956;28;20484;-71
2022/10/08 03:56:15;;;;;;;10.48;3.67;;;14.40;99.80;;;;;;5037831;28;20112;-71
2022/10/08 03:58:44;;;;;;;9.25;3.47;;;14.40;99.90;;;;;;5037416;28;20051;-71
2022/10/08 04:01:13;;;;;;;9.68;2.88;;;14.40;99.90;;;;;;5059186;28;20029;-72
2022/10/08 04:03:39;;;;;;;13.23;3.40;;;14.40;99.90;;;;;;5038176;28;20042;-71
2022/10/08 04:06:05;;;;;;;9.18;4.18;;;14.30;99.90;;;;;;5042126;28;20052;-71
2022/10/08 04:08:32;;;;;;;11.07;3.42;;;14.40;99.90;;;;;;5042265;28;20146;-71
2022/10/08 04:11:05;;;;;;;11.32;3.63;;;14.30;99.90;;;;;;5042260;28;20063;-71
2022/10/08 04:13:31;;;;;;;9.43;3.13;;;14.30;99.90;;;;;;5042668;28;20056;-71
2022/10/08 04:16:02;;;;;;;10.90;3.70;;;14.30;99.90;;;;;;5038585;28;20084;-71
2022/10/08 04:18:29;;;;;;;9.95;3.40;;;14.30;99.90;;;;;;5039913;28;20041;-70
2022/10/08 04:21:04;;;;;;;11.38;3.70;;;14.20;99.90;;;;;;5039884;28;20123;-71
2022/10/08 04:23:31;;;;;;;11.88;3.35;;;14.20;99.90;;;;;;5042452;28;20049;-71
2022/10/08 04:25:57;;;;;;;12.77;3.78;;;14.20;99.90;;;;;;5039441;28;20078;-71
2022/10/08 04:28:23;;;;;;;8.30;3.20;;;14.10;99.90;;;;;;5041254;28;20493;-71
2022/10/08 04:31:05;;;;;;;11.98;3.83;;;14.10;99.90;;;;;;5042689;28;20484;-71
2022/10/08 04:33:32;;;;;;;10.02;3.55;;;14.10;99.90;;;;;;5041420;28;20503;-71
2022/10/08 04:35:58;;;;;;;8.23;3.42;;;14.00;99.90;;;;;;5040291;28;20171;-71
2022/10/08 04:38:23;;;;;;;8.25;3.25;;;14.10;99.90;;;;;;5044108;28;20113;-71
2022/10/08 04:41:01;;;;;;;9.45;3.58;;;14.10;99.90;;;;;;5039059;28;20087;-70
2022/10/08 04:43:27;;;;;;;13.15;3.97;;;14.10;99.90;;;;;;5041384;28;20029;-71
2022/10/08 04:45:53;;;;;;;9.93;3.28;;;14.10;99.90;;;;;;5040060;28;20037;-71
2022/10/08 04:48:18;;;;;;;11.50;4.18;;;14.10;99.90;;;;;;5035760;28;20032;-71
2022/10/08 04:50:44;;;;;;;9.93;4.35;;;14.10;99.90;;;;;;5035831;28;20492;-72
2022/10/08 04:53:09;;;;;;;12.43;4.30;;;14.00;99.90;;;;;;5040415;28;20029;-71
2022/10/08 04:55:35;;;;;;;8.85;3.67;;;14.10;99.90;;;;;;5040562;28;20041;-70
2022/10/08 04:58:00;;;;;;;10.85;4.93;;;14.00;99.90;;;;;;5058900;28;20034;-71
2022/10/08 05:00:26;;;;;;;11.82;4.57;;;14.00;99.90;;;;;;5039243;28;20029;-71
2022/10/08 05:02:52;;;;;;;8.23;3.83;;;14.00;99.90;;;;;;5048919;28;20044;-71
2022/10/08 05:05:20;;;;;;;9.65;4.70;;;14.00;99.90;;;;;;5051160;28;20037;-71
2022/10/08 05:07:46;;;;;;;12.80;4.40;;;14.00;99.90;;;;;;5038527;28;20104;-70
2022/10/08 05:10:12;;;;;;;11.27;4.75;;;14.10;99.90;;;;;;5049998;28;20454;-70
2022/10/08 05:12:37;;;;;;;11.18;4.78;;;14.00;99.90;;;;;;5038809;28;20134;-70
2022/10/08 05:15:03;;;;;;;16.20;6.28;;;14.10;99.90;;;;;;5036058;28;20129;-70
2022/10/08 05:17:28;;;;;;;10.65;5.40;;;14.00;99.90;;;;;;5036536;28;20025;-70
2022/10/08 05:19:54;;;;;;;14.45;5.45;;;14.00;99.90;;;;;;5054866;28;20108;-70
2022/10/08 05:22:20;;;;;;;11.15;5.63;;;13.90;99.90;;;;;;5040138;28;20029;-71
2022/10/08 05:24:45;;;;;;;15.15;6.95;;;13.90;99.90;;;;;;5048231;28;20025;-72
2022/10/08 05:27:11;;;;;;;10.18;5.65;;;13.90;99.90;;;;;;5037650;28;20041;-72
2022/10/08 05:29:36;;;;;;;12.15;6.20;;;13.80;99.90;;;;;;5044857;28;20116;-71
2022/10/08 05:32:02;;;;;;;15.02;6.50;;;13.80;99.90;;;;;;5053334;28;20512;-71
2022/10/08 05:34:27;;;;;;;12.68;6.00;;;13.90;99.90;;;;;;5052386;28;20029;-71
2022/10/08 05:36:53;;;;;;;17.27;6.50;;;13.90;99.90;;;;;;5046758;28;20431;-70
2022/10/08 05:39:19;;;;;;;11.43;6.13;;;13.90;99.90;;;;;;5045851;28;20047;-71
2022/10/08 05:41:44;;;;;;;15.40;6.30;;;13.90;99.90;;;;;;5054369;28;20174;-71
2022/10/08 05:44:10;;;;;;;14.23;6.93;;;13.80;99.90;;;;;;5044692;28;20026;-70
2022/10/08 05:46:36;;;;;;;14.90;6.65;;;13.80;99.90;;;;;;5045347;28;20026;-71
2022/10/08 05:49:07;;;;;;;10.15;6.38;;;13.80;99.90;;;;;;5042483;28;20032;-71
2022/10/08 05:51:33;;;;;;;13.88;6.60;;;13.90;99.90;;;;;;5053618;28;20029;-74
2022/10/08 05:53:59;;;;;;;9.63;6.00;;;13.90;99.90;;;;;;5041338;28;20151;-71
2022/10/08 05:56:26;;;;;;;13.73;6.53;;;13.80;99.90;;;;;;5035846;28;20040;-71
2022/10/08 05:58:52;;;;;;;10.32;6.20;;;13.90;99.90;;;;;;5038522;28;20017;-71
2022/10/08 06:01:19;;;;;;;10.50;6.10;;;13.90;99.90;;;;;;5037678;28;20033;-71
2022/10/08 06:03:56;;;;;;;10.20;5.93;;;14.00;99.90;;;;;;5039145;28;20469;-71
2022/10/08 06:06:23;;;;;;;12.48;6.45;;;13.90;99.90;;;;;;5043414;28;20401;-71
2022/10/08 06:08:59;;;;;;;15.95;7.63;;;13.90;99.90;;;;;;5036097;28;20065;-71
2022/10/08 06:11:26;;;;;;;13.10;6.32;;;13.80;99.90;;;;;;5040673;28;20136;-72
2022/10/08 06:13:53;;;;;;;11.63;6.22;;;13.80;99.90;;;;;;5034976;28;20026;-73
2022/10/08 06:16:19;;;;;;;11.82;7.13;;;13.80;99.90;;;;;;5051970;28;20037;-73
2022/10/08 06:18:45;;;;;;;9.40;6.30;;;13.90;99.90;;;;;;5052432;28;20028;-73
2022/10/08 06:21:24;;;;;;;11.50;6.55;;;13.90;99.90;;;;;;5039764;28;20049;-73
2022/10/08 06:23:52;;;;;;;13.13;6.93;;;13.80;99.90;;;;;;5044030;28;20083;-73
2022/10/08 06:26:18;;;;;;;12.38;6.70;;;13.90;99.90;;;;;;5039294;28;20037;-72
2022/10/08 06:28:44;;;;;;;14.90;7.43;;;13.80;99.90;;;;;;5037614;28;20436;-72
2022/10/08 06:31:11;;;;;;;13.65;6.82;;;13.90;99.90;;;;;;5050446;28;20036;-72
2022/10/08 06:33:37;;;;;;;16.92;7.53;;;13.90;99.90;;;;;;5052471;28;20449;-72
2022/10/08 06:36:12;;;;;;;17.67;6.68;;;13.90;99.90;;;;;;5043937;28;20044;-72
2022/10/08 06:38:38;;;;;;;14.77;7.43;;;13.80;99.90;;;;;;5047126;28;20025;-72
2022/10/08 06:41:06;;;;;;;14.75;6.75;;;13.80;99.90;;;;;;5044704;28;20473;-72
2022/10/08 06:43:32;;;;;;;12.02;6.10;;;13.90;99.90;;;;;;5038755;28;20049;-71
2022/10/08 06:45:59;;;;;;;12.85;7.10;;;13.90;99.90;;;;;;5046952;28;20072;-71
2022/10/08 06:48:26;;;;;;;16.48;7.38;;;13.90;99.90;;;;;;5036392;28;20531;-71
2022/10/08 06:51:06;;;;;;;11.80;6.07;;;13.90;99.90;;;;;;5039114;28;20056;-73
2022/10/08 06:53:32;;;;;;;14.35;6.88;;;13.90;99.90;;;;;;5039624;28;20017;-72
2022/10/08 06:56:04;;;;;;;13.65;7.15;;;13.90;99.90;;;;;;5039462;28;20056;-73
2022/10/08 06:58:31;;;;;;;14.43;6.50;;;13.90;99.90;;;;;;5034441;28;20030;-72
2022/10/08 07:01:03;;;;;;;9.95;5.50;;;13.90;99.90;;;;;;5037527;28;20480;-73
2022/10/08 07:03:29;;;;;;;13.13;5.85;;;13.90;99.90;;;;;;5042467;28;20112;-71
2022/10/08 07:05:54;;;;;;;13.43;6.20;;;13.90;99.90;;;;;;5035614;28;20155;-69
2022/10/08 07:08:20;;;;;;;10.70;5.45;;;14.00;99.90;;;;;;5051724;28;20029;-70
2022/10/08 07:10:46;;;;;;;10.52;5.50;;;14.10;99.90;;;;;;5052931;28;20107;-70
2022/10/08 07:13:11;;;;;;;11.10;6.20;;;14.10;99.90;;;;;;5037072;28;20132;-70
2022/10/08 07:15:37;;;;;;;11.50;6.28;;;14.20;99.90;;;;;;5035218;28;20065;-71
2022/10/08 07:18:08;;;;;;;13.13;5.60;;;14.30;99.90;;;;;;5045717;28;20021;-70
2022/10/08 07:20:33;;;;;;;14.73;6.05;;;14.30;99.90;;;;;;5050956;28;20025;-70
2022/10/08 07:22:59;;;;;;;15.57;5.57;;;14.40;99.90;;;;;;5040358;28;20068;-68
2022/10/08 07:25:24;;;;;;;13.02;5.25;;;14.40;99.90;;;;;;5043325;28;20021;-69
2022/10/08 07:27:50;;;;;;;9.77;4.82;;;14.40;99.90;;;;;;5047567;28;20124;-70
2022/10/08 07:30:18;;;;;;;10.63;5.57;;;14.50;99.90;;;;;;5051534;28;20029;-69
2022/10/08 07:32:44;;;;;;;13.95;5.13;;;14.60;99.70;;;;;;5050328;28;20082;-70
2022/10/08 07:35:10;;;;;;;10.65;4.43;;;14.60;99.70;;;;;;5052195;28;20024;-70
2022/10/08 07:37:35;;;;;;;10.02;4.50;;;14.70;99.50;;;;;;5051339;28;20451;-69
2022/10/08 07:40:01;;;;;;;15.20;4.60;;;14.80;99.50;;;;;;5050992;28;20021;-69
2022/10/08 07:42:26;;;;;;;9.57;3.90;;;14.80;99.20;;;;;;5037924;28;20032;-69
2022/10/08 07:44:52;;;;;;;10.13;3.58;;;14.80;99.20;;;;;;5052032;28;20032;-69
2022/10/08 07:47:17;;;;;;;10.00;3.35;;;14.80;99.10;;;;;;5050075;28;20021;-71
2022/10/08 07:49:43;;;;;;;12.57;3.53;;;14.80;99.10;;;;;;5034170;28;20021;-71
2022/10/08 07:52:09;;;;;;;12.43;2.97;;;14.80;98.70;;;;;;5049012;28;20049;-70
2022/10/08 07:54:34;;;;;;;9.85;3.47;;;14.80;98.60;;;;;;5038802;28;20427;-70
2022/10/08 07:57:01;;;;;;;11.32;2.63;;;14.80;98.50;;;;;;5050499;28;20032;-70
2022/10/08 07:59:27;;;;;;;6.70;1.73;;;14.80;98.40;;;;;;5037166;28;20032;-68
2022/10/08 08:01:53;;;;;;;7.93;2.33;;;14.80;97.60;;;;;;5034660;28;20389;-69
2022/10/08 08:04:18;;;;;;;9.75;1.67;;;14.90;97.60;;;;;;5046360;28;20017;-69
2022/10/08 08:06:51;;;;;;;10.27;1.70;;;14.80;97.50;;;;;;5050341;28;20025;-69
2022/10/08 08:09:17;;;;;;;9.18;1.15;;;14.80;97.40;;;;;;5041099;28;20080;-70
2022/10/08 08:11:50;;;;;;;8.00;0.75;;;14.90;97.10;;;;;;5033993;28;20029;-70
2022/10/08 08:14:15;;;;;;;11.82;1.15;;;14.90;96.70;;;;;;5041016;28;21487;-69
2022/10/08 08:16:41;;;;;;;8.68;1.10;;;14.90;96.40;;;;;;5030631;28;20045;-69
2022/10/08 08:19:07;;;;;;;6.40;0.80;;;14.90;95.90;;;;;;5042486;28;20025;-69
2022/10/08 08:21:35;;;;;;;7.20;0.77;;;14.90;95.90;;;;;;5033371;28;20025;-69
2022/10/08 08:24:05;;;;;;;7.28;1.30;;;14.80;95.90;;;;;;5040591;28;20499;-70
2022/10/08 08:26:32;;;;;;;7.53;1.27;;;14.90;95.80;;;;;;5051189;28;20041;-70
2022/10/08 08:29:01;;;;;;;8.07;0.70;;;15.00;95.90;;;;;;5047729;28;20465;-70
2022/10/08 08:31:34;;;;;;;6.38;0.70;;;15.00;95.50;;;;;;5050054;28;20037;-70
2022/10/08 08:34:04;;;;;;;7.22;1.35;;;15.00;95.00;;;;;;5046780;28;20032;-70
2022/10/08 08:36:32;;;;;;;6.72;0.55;;;15.20;95.10;;;;;;5033317;28;20052;-70
2022/10/08 08:38:59;;;;;;;4.85;0.60;;;15.20;95.00;;;;;;5034587;28;20026;-70
2022/10/08 08:41:41;;;;;;;8.48;0.70;;;15.30;94.80;;;;;;5037883;28;20022;-69
2022/10/08 08:44:17;;;;;;;9.20;1.00;;;15.40;94.70;;;;;;5035510;28;20048;-69
2022/10/08 08:47:12;;;;;;;6.20;1.02;;;15.50;94.40;;;;;;5047543;28;20025;-70
2022/10/08 08:49:40;;;;;;;6.15;0.60;;;15.60;93.90;;;;;;5007648;28;20041;-70
2022/10/08 08:52:07;;;;;;;7.18;0.82;;;15.70;93.90;;;;;;5032527;28;20492;-70
2022/10/08 08:54:33;;;;;;;5.68;0.60;;;15.70;93.70;;;;;;5035395;28;20028;-70
2022/10/08 08:57:08;;;;;;;4.90;0.68;;;15.80;93.10;;;;;;5040240;28;20120;-70
2022/10/08 08:59:41;;;;;;;5.78;0.47;;;15.80;93.10;;;;;;5034031;28;20029;-70
2022/10/08 09:02:25;;;;;;;6.63;0.70;;;15.90;92.40;;;;;;5049066;28;20036;-70
2022/10/08 09:04:56;;;;;;;8.98;0.85;;;15.90;92.20;;;;;;5034393;28;20034;-70
2022/10/08 09:07:25;;;;;;;6.90;0.40;;;16.00;92.00;;;;;;5048618;28;20021;-70
2022/10/08 09:09:53;;;;;;;6.68;1.02;;;16.00;91.50;;;;;;5032964;28;20037;-70
2022/10/08 09:12:42;;;;;;;4.95;0.40;;;16.00;91.30;;;;;;5031356;28;20057;-69
2022/10/08 09:15:25;;;;;;;7.20;0.50;;;16.00;91.20;;;;;;5049669;28;20112;-69
2022/10/08 09:17:52;;;;;;;6.13;0.63;;;16.20;91.50;;;;;;5039087;28;20429;-69
2022/10/08 09:20:20;;;;;;;6.75;0.50;;;16.20;91.30;;;;;;5032977;28;20021;-69
2022/10/08 09:22:49;;;;;;;9.27;0.68;;;16.30;90.90;;;;;;5044535;28;20028;-69
2022/10/08 09:25:27;;;;;;;7.93;0.75;;;16.30;90.40;;;;;;5049919;28;20091;-70
2022/10/08 09:28:03;;;;;;;7.03;0.70;;;16.30;90.60;;;;;;5048915;28;20511;-70
2022/10/08 09:30:40;;;;;;;4.88;0.60;;;16.40;90.30;;;;;;5035548;28;20036;-69
2022/10/08 09:33:15;;;;;;;5.22;0.50;;;16.50;90.30;;;;;;5049498;28;20033;-70
2022/10/08 09:35:48;;;;;;;6.85;1.20;;;16.60;90.00;;;;;;5030958;28;20044;-69
2022/10/08 09:38:28;;;;;;;6.10;0.60;;;16.80;89.80;;;;;;5033622;28;20496;-69
2022/10/08 09:41:18;;;;;;;12.75;0.57;;;16.70;88.30;;;;;;5032583;28;20119;-69
2022/10/08 09:43:47;;;;;;;8.48;0.60;;;16.70;89.10;;;;;;5032215;28;20033;-70
2022/10/08 09:46:30;;;;;;;6.60;0.65;;;16.70;88.90;;;;;;5049930;28;20040;-70
2022/10/08 09:49:17;;;;;;;6.15;0.40;;;16.70;88.90;;;;;;5046775;28;20071;-70
2022/10/08 09:51:42;;;;;;;6.47;0.60;;;16.70;88.70;;;;;;5032233;28;20029;-70
2022/10/08 09:54:11;;;;;;;6.78;0.70;;;16.70;88.30;;;;;;5036754;28;20078;-70
2022/10/08 09:56:37;;;;;;;8.80;1.08;;;16.60;89.80;;;;;;5050586;28;20053;-70
2022/10/08 09:59:04;;;;;;;5.65;0.40;;;16.40;89.30;;;;;;5047939;28;20368;-70
2022/10/08 10:01:31;;;;;;;6.30;0.45;;;16.40;89.90;;;;;;5033573;28;20486;-70
2022/10/08 10:03:59;;;;;;;7.38;0.60;;;16.30;90.30;;;;;;5036114;28;20021;-70
2022/10/08 10:06:33;;;;;;;5.47;0.30;;;16.30;90.20;;;;;;5053169;28;20029;-70
2022/10/08 10:09:11;;;;;;;6.07;0.40;;;16.10;89.30;;;;;;5035891;28;20040;-70
2022/10/08 10:11:42;;;;;;;3.55;0.50;;;16.10;89.20;;;;;;5053837;28;20028;-70
2022/10/08 10:14:28;;;;;;;3.33;0.50;;;16.00;89.20;;;;;;5036871;28;20091;-70
2022/10/08 10:17:09;;;;;;;2.83;0.30;;;16.20;89.00;;;;;;5036075;28;20042;-70
2022/10/08 10:20:00;;;;;;;4.47;0.30;;;16.20;87.50;;;;;;5036506;28;20021;-70
2022/10/08 10:22:34;;;;;;;4.47;0.55;;;16.40;88.00;;;;;;5043912;28;20064;-70
2022/10/08 10:25:31;;;;;;;4.78;0.40;;;16.50;87.20;;;;;;5037059;28;20045;-70
2022/10/08 10:28:20;;;;;;;6.30;0.57;;;16.60;86.40;;;;;;5018072;28;20056;-70
2022/10/08 10:31:00;;;;;;;5.18;0.50;;;16.70;86.50;;;;;;5029674;28;20041;-70
2022/10/08 10:33:32;;;;;;;6.57;0.73;;;16.70;86.00;;;;;;5052963;28;20434;-70
2022/10/08 10:36:04;;;;;;;4.82;0.55;;;16.60;86.20;;;;;;5043991;28;20477;-71
2022/10/08 10:38:35;;;;;;;6.20;0.50;;;16.50;86.60;;;;;;5052007;28;20171;-69
2022/10/08 10:41:13;;;;;;;9.40;0.73;;;16.40;86.90;;;;;;5039779;28;20108;-71
2022/10/08 10:43:59;;;;;;;3.97;0.50;;;16.30;87.90;;;;;;5052257;28;20377;-70
2022/10/08 10:46:36;;;;;;;7.97;0.32;;;16.20;89.00;;;;;;5038111;28;20036;-70
2022/10/08 10:49:01;;;;;;;6.18;0.40;;;16.20;90.00;;;;;;5043748;28;20396;-70
2022/10/08 10:51:50;;;;;;;4.82;0.40;;;16.10;89.80;;;;;;5046110;28;20032;-70
2022/10/08 10:54:16;;;;;;;6.47;0.40;;;16.00;90.20;;;;;;5052798;28;20369;-69
2022/10/08 10:56:55;;;;;;;6.38;0.45;;;16.00;90.20;;;;;;5043946;28;20048;-70
2022/10/08 10:59:40;;;;;;;6.07;0.50;;;16.00;90.20;;;;;;5041778;28;20029;-70
2022/10/08 11:02:32;;;;;;;9.65;0.65;;;15.90;90.30;;;;;;5050242;28;20029;-70
2022/10/08 11:05:14;;;;;;;8.32;0.80;;;15.90;90.50;;;;;;5052853;28;20113;-70
2022/10/08 11:07:50;;;;;;;16.38;1.05;;;16.10;90.90;;;;;;5041473;28;20112;-70
2022/10/08 11:10:39;;;;;;;11.57;1.05;;;16.20;90.50;;;;;;5048102;28;20079;-70
2022/10/08 11:13:28;;;;;;;22.65;1.17;;;16.30;92.00;;;;;;5039120;28;20100;-70
2022/10/08 11:16:40;;;;;;;7.43;0.40;;;16.60;92.30;;;;;;5033492;28;20052;-69
2022/10/08 11:19:18;;;;;;;14.57;1.33;;;16.80;91.70;;;;;;5036335;28;20033;-70
2022/10/08 11:22:04;;;;;;;5.63;0.50;;;17.00;91.30;;;;;;5036569;28;20032;-70
2022/10/08 11:25:02;;;;;;;4.18;0.88;;;17.20;91.20;;;;;;5035624;28;20025;-69
2022/10/08 11:27:52;;;;;;;5.07;0.60;;;17.30;91.40;;;;;;5026825;28;20048;-71
2022/10/08 11:30:21;;;;;;;8.68;0.52;;;17.60;90.80;;;;;;5042082;28;20802;-69
2022/10/08 11:32:54;;;;;;;22.65;0.95;;;17.60;89.90;;;;;;5053545;28;20572;-70
2022/10/08 11:35:19;;;;;;;;;;;17.80;91.20;;;;;;5046412;28;20037;-70
2022/10/08 11:38:05;;;;;;;6.55;0.40;;;17.80;87.70;;;;;;5035306;28;19909;-71
2022/10/08 11:40:47;;;;;;;7.22;0.50;;;17.80;87.90;;;;;;5044737;28;20071;-72
2022/10/08 11:43:34;;;;;;;3.50;0.60;;;17.80;86.80;;;;;;5044220;28;20053;-71
2022/10/08 11:46:18;;;;;;;7.03;0.50;;;17.70;85.90;;;;;;5037944;28;20056;-72
2022/10/08 11:48:43;;;;;;;5.45;0.47;;;17.50;85.30;;;;;;5040795;28;20472;-71
2022/10/08 11:51:18;;;;;;;6.50;0.47;;;17.30;85.10;;;;;;5042081;28;20104;-71
2022/10/08 11:54:02;;;;;;;6.80;0.68;;;17.10;86.30;;;;;;5040278;28;20016;-72
2022/10/08 11:56:28;;;;;;;5.70;0.70;;;17.10;86.90;;;;;;5037617;28;20079;-72
2022/10/08 11:58:56;;;;;;;5.70;0.60;;;17.10;86.20;;;;;;5033358;28;20018;-72
2022/10/08 12:01:22;;;;;;;4.13;0.60;;;17.30;86.50;;;;;;5033435;28;20115;-72
2022/10/08 12:04:17;;;;;;;7.15;0.60;;;17.40;86.40;;;;;;5032357;28;20036;-72
2022/10/08 12:06:45;;;;;;;7.18;0.47;;;17.60;85.70;;;;;;5031864;28;20033;-72
2022/10/08 12:09:22;;;;;;;5.22;0.60;;;17.70;84.00;;;;;;5031101;28;20036;-72
2022/10/08 12:11:50;;;;;;;9.02;0.63;;;17.70;82.60;;;;;;5032540;28;20022;-72
2022/10/08 12:14:16;;;;;;;5.40;0.52;;;17.90;81.90;;;;;;5031974;28;20044;-72
2022/10/08 12:16:47;;;;;;;9.10;0.77;;;17.90;80.10;;;;;;5032236;28;20552;-73
2022/10/08 12:19:32;;;;;;;4.80;0.47;;;17.90;79.20;;;;;;5033920;28;20159;-72
2022/10/08 12:22:23;;;;;;;10.13;0.40;;;18.00;79.50;;;;;;5034018;28;20028;-72
2022/10/08 12:24:56;;;;;;;3.20;0.30;;;18.20;78.50;;;;;;5030530;28;20512;-73
2022/10/08 12:27:34;;;;;;;3.92;0.40;;;18.30;76.80;;;;;;5037638;28;20053;-73
2022/10/08 12:30:02;;;;;;;6.38;0.60;;;18.30;75.60;;;;;;5033668;28;20545;-71
2022/10/08 12:32:50;;;;;;;6.55;0.40;;;18.40;76.30;;;;;;5034000;28;20033;-71
2022/10/08 12:35:29;;;;;;;4.72;0.30;;;18.30;75.40;;;;;;5033712;28;20032;-71
2022/10/08 12:38:14;;;;;;;5.20;0.70;;;18.20;74.10;;;;;;5033691;28;20029;-71
2022/10/08 12:40:45;;;;;;;7.78;0.70;;;18.10;74.20;;;;;;5033221;28;20527;-72
2022/10/08 12:43:27;;;;;;;7.25;0.80;;;18.20;74.30;;;;;;5033646;28;20109;-72
2022/10/08 12:46:29;;;;;;;4.43;0.38;;;18.20;74.20;;;;;;5033494;28;20108;-71
2022/10/08 12:49:04;;;;;;;10.48;1.13;;;18.30;73.90;;;;;;5033179;28;20033;-72
2022/10/08 12:51:43;;;;;;;6.30;0.52;;;18.30;73.30;;;;;;5033293;28;20033;-72
2022/10/08 12:54:22;;;;;;;4.90;0.52;;;18.30;73.20;;;;;;5033557;28;20366;-73
2022/10/08 12:56:50;;;;;;;6.20;0.70;;;18.30;73.20;;;;;;5033359;28;20547;-71
2022/10/08 12:59:17;;;;;;;3.25;0.50;;;18.40;73.60;;;;;;5033227;28;20041;-73
2022/10/08 13:01:45;;;;;;;4.00;0.38;;;18.50;72.70;;;;;;5032983;28;20445;-72
2022/10/08 13:04:20;;;;;;;7.55;0.60;;;18.60;72.00;;;;;;5033405;28;20115;-72
2022/10/08 13:06:47;;;;;;;5.38;0.50;;;18.60;71.90;;;;;;5033240;28;20017;-72
2022/10/08 13:09:34;;;;;;;8.50;0.57;;;18.70;71.90;;;;;;5032992;28;20041;-71